Mukdahan, Thailand

12:50 PM ICT on October 02, 2014 (GMT +0700)
Nakhon Phanom | Change Station
CLOSE
Current Station
Airport
Location: Nakhon Phanom,
Elevation: 584 ft
Nearby Weather Stations

Elev 584 ft 17.38 °N, 104.64 °E | Updated 50 minutes ago

Scattered Clouds
Scattered Clouds
90 °F
Feels Like 93 °F
N
7
Wind Variable Wind from SSE

Today
High -- | Low -- °F
--% Chance of Precip.
Yesterday
High -- | Low -- °F
Precip. -- in
5:51 AM 5:49 PM
First Quarter, 55% visible
Pressure 29.86 in
Visibility 6.2 miles
Clouds Scattered Clouds 30000 ft
Heat Index 93 °F
Dew Point 68 °F
Humidity 49%
Rainfall 0.00 in
Snow Depth Not available.
UV 12 out of 12
Pollen Not available.
Air Quality Not available.
Flu Activity Not available.
METAR VTUW 010500Z 15006KT 9999 SCTT022 SCT300 32/20 Q1011 A2987 RWY15 INFO E

More Conditions Fewer Conditions

Pressure 29.86 in
Visibility 6.2 miles
Clouds Scattered Clouds 30000 ft
Heat Index 93 °F
Dew Point 68 °F
Humidity 49%
Rainfall 0.00 in
Snow Depth Not available.
UV 12 out of 12
Pollen Not available.
Air Quality Not available.
Flu Activity Not available.
METAR VTUW 010500Z 15006KT 9999 SCTT022 SCT300 32/20 Q1011 A2987 RWY15 INFO E

More Conditions Fewer Conditions

10-Day Weather Forecast

Almanac

Astronomy

Oct. 02, 2014 Rise Set
Actual Time 5:51 AM ICT 5:49 PM ICT
Civil Twilight 5:29 AM ICT 6:11 PM ICT
Nautical Twilight 5:04 AM ICT 6:36 PM ICT
Astronomical Twilight 4:39 AM ICT 7:01 PM ICT
Moon 12:40 PM ICT No Moon Set
Length of Visible Light 12h 41m
Length of Day
11h 58m
Tomorrow will be 0m 56s shorter.
First Quarter, 55% of the Moon is Illuminated
Today
First Quarter
Oct 8
Full
Oct 15
Last Quarter
Oct 23
New
Oct 30
First Quarter

Yesterday's Extremes

Country Highs Country Lows

Community

WunderPhotos

Upload Photos

1,758,197 photos uploaded!

Nearby

Snow Depth

Not available.

Earthquake Activity

City Distance Mag. Time & Date
No recent earthquake activity has been reported nearby.
Minimum magnitude displayed is 2.5.

Coastal Water Temperatures

Place Temperature
No Stations Reporting

Nearby Weather Stations